Time;durP1;ratioP1;P1;durP2;ratioP2;P2;SDS_P1;SDS_P2;PMS_P1;PMS_P2;Temp;Humidity;BMP_temperature;BMP_pressure;BME280_temperature;BME280_humidity;BME280_pressure;Samples;Min_cycle;Max_cycle;Signal;HPM_P1;HPM_P2
2023/07/15 00:00:39;;;;;;;4.05;2.38;;;16.40;99.90;;;;;;4953315;28;20033;-77
2023/07/15 00:03:08;;;;;;;2.28;1.77;;;16.30;99.90;;;;;;4953431;28;20027;-78
2023/07/15 00:05:37;;;;;;;2.80;2.30;;;16.20;99.90;;;;;;4952933;28;20511;-78
2023/07/15 00:08:03;;;;;;;6.20;2.17;;;16.20;99.90;;;;;;4953274;28;20022;-78
2023/07/15 00:10:29;;;;;;;2.00;1.70;;;16.30;99.90;;;;;;4970706;28;20042;-77
2023/07/15 00:12:57;;;;;;;4.22;2.15;;;16.20;99.90;;;;;;4970284;28;20030;-77
2023/07/15 00:15:23;;;;;;;2.63;2.13;;;16.20;99.90;;;;;;4953136;28;20038;-77
2023/07/15 00:17:48;;;;;;;5.63;2.28;;;16.20;99.90;;;;;;4970528;28;20027;-78
2023/07/15 00:20:14;;;;;;;6.65;1.65;;;16.30;99.90;;;;;;4952453;28;20031;-78
2023/07/15 00:22:44;;;;;;;2.60;1.80;;;16.20;99.90;;;;;;4953194;28;20047;-77
2023/07/15 00:25:11;;;;;;;;;;;16.20;99.90;;;;;;4953403;28;20423;-78
2023/07/15 00:27:37;;;;;;;2.08;1.98;;;16.20;99.90;;;;;;4972044;28;19921;-78
2023/07/15 00:30:03;;;;;;;1.63;1.52;;;16.20;99.90;;;;;;4974047;28;20042;-77
2023/07/15 00:32:29;;;;;;;2.65;2.30;;;16.20;99.90;;;;;;4956686;28;20408;-77
2023/07/15 00:34:54;;;;;;;3.47;2.00;;;16.20;99.90;;;;;;4974162;28;20026;-77
2023/07/15 00:37:20;;;;;;;3.60;2.40;;;16.30;99.90;;;;;;4957298;28;20098;-78
2023/07/15 00:39:46;;;;;;;2.30;2.00;;;16.20;99.90;;;;;;4956833;28;20077;-78
2023/07/15 00:42:39;;;;;;;6.65;2.05;;;16.20;99.90;;;;;;4956570;28;20041;-77
2023/07/15 00:45:06;;;;;;;2.40;1.75;;;16.10;99.90;;;;;;4942944;28;20125;-78
2023/07/15 00:47:39;;;;;;;4.30;2.72;;;16.00;99.90;;;;;;4974142;28;20106;-78
2023/07/15 00:50:06;;;;;;;5.95;1.90;;;16.00;99.90;;;;;;4973634;28;20037;-78
2023/07/15 00:52:32;;;;;;;2.15;2.05;;;16.00;99.90;;;;;;4956221;28;20137;-78
2023/07/15 00:54:58;;;;;;;1.80;1.58;;;16.10;99.90;;;;;;4973723;28;20098;-77
2023/07/15 00:57:25;;;;;;;3.58;1.83;;;16.00;99.90;;;;;;4956774;28;20380;-77
2023/07/15 00:59:52;;;;;;;2.53;2.10;;;16.10;99.90;;;;;;4956537;28;20480;-77
2023/07/15 01:02:18;;;;;;;2.10;1.90;;;16.10;99.90;;;;;;4973974;28;20050;-77
2023/07/15 01:04:45;;;;;;;6.07;2.08;;;16.10;99.90;;;;;;4955929;28;20027;-78
2023/07/15 01:07:11;;;;;;;1.98;1.77;;;16.10;99.90;;;;;;4956284;28;20113;-77
2023/07/15 01:09:37;;;;;;;4.30;1.58;;;16.20;99.90;;;;;;4956639;28;20472;-77
2023/07/15 01:12:03;;;;;;;2.05;1.73;;;16.10;99.90;;;;;;4973675;28;20039;-77
2023/07/15 01:14:29;;;;;;;2.15;1.70;;;16.00;99.90;;;;;;4956125;28;20077;-77
2023/07/15 01:16:54;;;;;;;2.13;1.92;;;16.00;99.90;;;;;;4973461;28;20487;-79
2023/07/15 01:19:21;;;;;;;2.60;2.40;;;16.00;99.90;;;;;;4973328;28;20046;-78
2023/07/15 01:21:50;;;;;;;2.83;1.90;;;16.00;99.90;;;;;;4973350;28;20134;-77
2023/07/15 01:24:18;;;;;;;2.85;1.80;;;16.00;99.90;;;;;;4973442;28;20023;-77
2023/07/15 01:26:43;;;;;;;3.25;1.80;;;15.90;99.90;;;;;;4955837;28;20562;-78
2023/07/15 01:29:09;;;;;;;3.30;2.70;;;15.90;99.90;;;;;;4973453;28;20114;-77
2023/07/15 01:31:34;;;;;;;2.80;1.98;;;15.90;99.90;;;;;;4956134;28;20023;-78
2023/07/15 01:34:00;;;;;;;2.22;1.73;;;15.80;99.90;;;;;;4973169;28;20105;-78
2023/07/15 01:36:26;;;;;;;3.80;2.85;;;15.80;99.90;;;;;;4956503;28;20117;-77
2023/07/15 01:38:52;;;;;;;11.88;2.95;;;15.70;99.90;;;;;;4973261;28;20027;-77
2023/07/15 01:41:18;;;;;;;4.72;2.70;;;15.60;99.90;;;;;;4955600;28;20042;-77
2023/07/15 01:43:44;;;;;;;2.95;2.00;;;15.60;99.90;;;;;;4955675;28;20134;-78
2023/07/15 01:46:10;;;;;;;2.95;1.80;;;15.70;99.90;;;;;;4955898;28;20057;-78
2023/07/15 01:48:36;;;;;;;4.40;2.30;;;15.70;99.90;;;;;;4955463;28;20054;-77
2023/07/15 01:51:01;;;;;;;2.25;2.05;;;15.70;99.90;;;;;;4973212;28;20026;-77
2023/07/15 01:53:27;;;;;;;4.32;2.30;;;15.70;99.90;;;;;;4972927;28;20416;-78
2023/07/15 01:55:53;;;;;;;2.28;2.08;;;15.70;99.90;;;;;;4972986;28;20027;-77
2023/07/15 01:58:19;;;;;;;2.28;2.13;;;15.60;99.90;;;;;;4972777;28;20030;-78
2023/07/15 02:00:44;;;;;;;3.15;2.17;;;15.60;99.90;;;;;;4955193;28;20074;-77
2023/07/15 02:03:10;;;;;;;14.23;2.83;;;15.50;99.90;;;;;;4954998;28;20436;-78
2023/07/15 02:05:36;;;;;;;2.20;2.00;;;15.50;99.90;;;;;;4955193;28;20030;-77
2023/07/15 02:08:01;;;;;;;4.72;2.17;;;15.50;99.90;;;;;;4972693;28;20531;-78
2023/07/15 02:10:30;;;;;;;1.77;1.67;;;15.60;99.90;;;;;;4972755;28;20030;-78
2023/07/15 02:12:56;;;;;;;2.20;2.10;;;15.50;99.90;;;;;;4973045;28;20105;-78
2023/07/15 02:15:21;;;;;;;2.03;1.77;;;15.60;99.90;;;;;;4955131;28;20369;-79
2023/07/15 02:17:47;;;;;;;2.72;1.73;;;15.60;99.90;;;;;;4972449;28;20030;-78
2023/07/15 02:20:13;;;;;;;3.72;1.77;;;15.70;99.90;;;;;;4954734;28;20115;-78
2023/07/15 02:22:40;;;;;;;2.63;1.70;;;15.60;99.90;;;;;;4972513;28;20039;-78
2023/07/15 02:25:06;;;;;;;4.53;2.20;;;15.60;99.90;;;;;;4955173;28;20190;-77
2023/07/15 02:27:32;;;;;;;2.20;1.90;;;15.60;99.90;;;;;;4972433;28;20039;-78
2023/07/15 02:29:58;;;;;;;2.75;1.70;;;15.60;99.90;;;;;;4972266;28;20057;-77
2023/07/15 02:32:36;;;;;;;2.50;2.30;;;15.60;99.90;;;;;;4954903;28;20028;-78
2023/07/15 02:35:03;;;;;;;3.72;2.10;;;15.50;99.90;;;;;;4954704;28;20122;-78
2023/07/15 02:37:29;;;;;;;4.18;1.98;;;15.50;99.90;;;;;;4971982;28;20102;-78
2023/07/15 02:39:54;;;;;;;2.65;2.45;;;15.50;99.90;;;;;;4971883;28;20174;-77
2023/07/15 02:42:20;;;;;;;2.22;2.03;;;15.50;99.90;;;;;;4954715;28;20033;-77
2023/07/15 02:44:46;;;;;;;5.88;1.75;;;15.50;99.90;;;;;;4954230;28;20031;-78
2023/07/15 02:47:11;;;;;;;1.95;1.85;;;15.50;99.90;;;;;;4972026;28;20039;-78
2023/07/15 02:49:37;;;;;;;2.17;2.03;;;15.40;99.90;;;;;;4954353;28;20026;-77
2023/07/15 02:52:03;;;;;;;5.22;2.25;;;15.40;99.90;;;;;;4971356;28;20451;-77
2023/07/15 02:54:28;;;;;;;2.67;1.80;;;15.30;99.90;;;;;;4971895;28;20101;-77
2023/07/15 02:56:55;;;;;;;2.08;1.85;;;15.40;99.90;;;;;;4972539;28;20042;-77
2023/07/15 02:59:22;;;;;;;2.28;1.67;;;15.40;99.90;;;;;;4972190;28;20023;-77
2023/07/15 03:01:48;;;;;;;2.25;2.05;;;15.50;99.90;;;;;;4954699;28;20061;-77
2023/07/15 03:04:13;;;;;;;3.70;1.90;;;15.50;99.90;;;;;;4954551;28;20066;-77
2023/07/15 03:06:39;;;;;;;6.50;2.13;;;15.50;99.90;;;;;;4954258;28;20082;-77
2023/07/15 03:09:05;;;;;;;2.88;1.95;;;15.40;99.90;;;;;;4972865;28;20019;-77
2023/07/15 03:11:32;;;;;;;2.47;2.10;;;15.30;99.90;;;;;;4955395;28;20050;-77
2023/07/15 03:13:58;;;;;;;2.28;1.88;;;15.30;99.90;;;;;;4971517;28;20110;-78
2023/07/15 03:16:23;;;;;;;1.70;1.60;;;15.30;99.90;;;;;;4972025;28;20082;-78
2023/07/15 03:18:49;;;;;;;4.78;2.00;;;15.30;99.90;;;;;;4955000;28;20027;-78
2023/07/15 03:21:14;;;;;;;2.70;2.08;;;15.30;99.90;;;;;;4955071;28;20104;-78
2023/07/15 03:23:40;;;;;;;4.20;2.00;;;15.30;99.90;;;;;;4955675;28;20081;-77
2023/07/15 03:26:06;;;;;;;3.53;2.00;;;15.20;99.90;;;;;;4971643;28;20488;-78
2023/07/15 03:28:31;;;;;;;1.98;1.63;;;15.20;99.90;;;;;;4953837;28;20022;-77
2023/07/15 03:30:57;;;;;;;2.60;2.28;;;15.20;99.90;;;;;;4971149;28;20097;-77
2023/07/15 03:33:23;;;;;;;2.60;2.40;;;15.20;99.90;;;;;;4953837;28;20311;-78
2023/07/15 03:35:49;;;;;;;40.10;2.47;;;15.10;99.90;;;;;;4970871;28;20022;-78
2023/07/15 03:38:15;;;;;;;1.70;1.60;;;15.20;99.90;;;;;;4971561;28;20065;-77
2023/07/15 03:40:41;;;;;;;2.85;2.10;;;15.20;99.90;;;;;;4954352;28;20112;-77
2023/07/15 03:43:06;;;;;;;2.35;2.15;;;15.20;99.90;;;;;;4954210;28;20034;-77
2023/07/15 03:45:32;;;;;;;2.55;1.70;;;15.20;99.90;;;;;;4953582;28;20039;-78
2023/07/15 03:47:57;;;;;;;3.58;1.80;;;15.10;99.90;;;;;;4953426;28;20019;-77
2023/07/15 03:50:24;;;;;;;4.10;1.92;;;15.10;99.90;;;;;;4953058;28;20493;-78
2023/07/15 03:52:49;;;;;;;7.10;1.65;;;15.10;99.90;;;;;;4970660;28;20365;-77
2023/07/15 03:55:15;;;;;;;2.97;2.33;;;15.10;99.90;;;;;;4953545;28;20038;-78
2023/07/15 03:57:41;;;;;;;1.50;1.30;;;15.10;99.90;;;;;;4953554;28;20112;-77
2023/07/15 04:00:13;;;;;;;1.75;1.65;;;15.20;99.90;;;;;;4970991;28;20042;-77
2023/07/15 04:02:44;;;;;;;6.70;2.10;;;15.30;99.90;;;;;;4953618;28;20081;-78
2023/07/15 04:05:11;;;;;;;5.43;1.80;;;15.30;99.90;;;;;;4953050;28;20046;-77
2023/07/15 04:07:37;;;;;;;1.85;1.45;;;15.30;99.90;;;;;;4970592;28;20019;-77
2023/07/15 04:10:02;;;;;;;2.65;2.20;;;15.30;99.90;;;;;;4970617;28;20637;-78
2023/07/15 04:12:28;;;;;;;2.47;1.80;;;15.30;99.90;;;;;;4953236;28;20483;-79
2023/07/15 04:14:54;;;;;;;2.55;2.00;;;15.20;99.90;;;;;;4970351;28;20031;-78
2023/07/15 04:17:19;;;;;;;2.75;2.55;;;15.30;99.90;;;;;;4953157;28;20514;-77
2023/07/15 04:19:45;;;;;;;4.93;1.80;;;15.30;99.90;;;;;;4953291;28;20033;-77
2023/07/15 04:22:11;;;;;;;2.38;1.90;;;15.40;99.90;;;;;;4952691;28;20042;-77
2023/07/15 04:24:36;;;;;;;4.07;2.70;;;15.40;99.90;;;;;;4953074;28;20099;-78
2023/07/15 04:27:02;;;;;;;2.17;1.88;;;15.50;99.90;;;;;;4952985;28;20057;-78
2023/07/15 04:29:30;;;;;;;2.30;2.05;;;15.60;99.90;;;;;;4953152;28;20070;-77
2023/07/15 04:31:56;;;;;;;4.18;1.77;;;15.70;99.90;;;;;;4953189;28;20030;-77
2023/07/15 04:34:22;;;;;;;1.75;1.63;;;15.80;99.90;;;;;;4970740;28;20034;-78
2023/07/15 04:36:48;;;;;;;2.97;1.67;;;15.90;99.90;;;;;;4970190;28;20030;-78
2023/07/15 04:39:14;;;;;;;1.90;1.80;;;16.00;99.90;;;;;;4952912;28;20027;-78
2023/07/15 04:41:39;;;;;;;2.20;2.00;;;16.00;99.90;;;;;;4953050;28;20077;-77
2023/07/15 04:44:05;;;;;;;3.63;1.80;;;16.00;99.90;;;;;;4953226;28;20129;-77
2023/07/15 04:46:32;;;;;;;2.30;1.70;;;16.00;99.90;;;;;;4970048;28;20381;-78
2023/07/15 04:48:58;;;;;;;3.80;2.28;;;16.10;99.90;;;;;;4952821;28;20019;-77
2023/07/15 04:51:23;;;;;;;2.85;2.60;;;16.40;99.90;;;;;;4970041;28;20472;-77
2023/07/15 04:53:49;;;;;;;2.15;1.70;;;16.60;99.90;;;;;;4952972;28;20023;-77
2023/07/15 04:56:15;;;;;;;1.85;1.67;;;16.70;99.90;;;;;;4970261;28;20035;-77
2023/07/15 04:58:41;;;;;;;1.75;1.65;;;16.80;99.90;;;;;;4952834;28;20498;-78
2023/07/15 05:01:06;;;;;;;1.92;1.65;;;16.90;99.90;;;;;;4969757;28;20455;-78
2023/07/15 05:03:33;;;;;;;2.28;1.88;;;17.00;99.90;;;;;;4952493;28;20213;-78
2023/07/15 05:05:58;;;;;;;2.88;1.60;;;17.10;99.90;;;;;;4969149;28;20125;-78
2023/07/15 05:08:24;;;;;;;1.90;1.30;;;17.40;99.90;;;;;;4952671;28;20166;-78
2023/07/15 05:10:51;;;;;;;3.00;1.98;;;17.60;99.90;;;;;;4952621;28;20031;-77
2023/07/15 05:13:17;;;;;;;2.03;1.83;;;17.70;99.90;;;;;;4953403;28;20030;-77
2023/07/15 05:15:43;;;;;;;4.32;2.58;;;17.70;99.90;;;;;;4956286;28;20026;-77
2023/07/15 05:18:09;;;;;;;1.75;1.63;;;17.80;99.90;;;;;;4955967;28;20031;-78
2023/07/15 05:20:35;;;;;;;3.03;1.52;;;17.80;99.90;;;;;;4955568;28;20190;-78
2023/07/15 05:23:02;;;;;;;6.60;2.47;;;17.80;99.90;;;;;;4973393;28;20097;-78
2023/07/15 05:25:31;;;;;;;3.15;1.58;;;17.80;99.90;;;;;;4955769;28;20034;-78
2023/07/15 05:27:58;;;;;;;2.15;1.50;;;18.00;99.90;;;;;;4955810;28;20027;-78
2023/07/15 05:30:23;;;;;;;1.35;1.25;;;18.20;99.90;;;;;;4973360;28;20388;-78
2023/07/15 05:32:49;;;;;;;4.80;1.83;;;18.30;99.90;;;;;;4973683;28;20027;-78
2023/07/15 05:35:15;;;;;;;2.20;1.52;;;18.30;99.90;;;;;;4972849;28;20117;-77
2023/07/15 05:37:42;;;;;;;1.70;1.60;;;18.40;99.90;;;;;;4955721;28;20030;-78
2023/07/15 05:40:12;;;;;;;1.90;1.73;;;18.50;99.90;;;;;;4955685;28;20062;-78
2023/07/15 05:42:38;;;;;;;1.65;1.50;;;18.60;99.90;;;;;;4955741;28;20058;-78
2023/07/15 05:45:05;;;;;;;3.97;1.67;;;18.80;99.90;;;;;;4955502;28;20023;-78
2023/07/15 05:47:30;;;;;;;3.55;1.80;;;19.10;99.90;;;;;;4955611;28;20190;-78
2023/07/15 05:49:56;;;;;;;2.63;1.40;;;19.20;99.90;;;;;;4955309;28;20197;-78
2023/07/15 05:52:22;;;;;;;2.25;1.70;;;19.30;99.90;;;;;;4972995;28;20081;-78
2023/07/15 05:54:47;;;;;;;2.28;2.08;;;19.40;99.90;;;;;;4972855;28;20499;-78
2023/07/15 05:57:13;;;;;;;6.80;1.92;;;19.50;99.90;;;;;;4972773;28;20026;-78
2023/07/15 05:59:39;;;;;;;2.90;1.70;;;19.70;99.90;;;;;;4972640;28;20023;-78
2023/07/15 06:02:05;;;;;;;2.50;1.73;;;19.90;99.90;;;;;;4955261;28;20034;-79
2023/07/15 06:04:31;;;;;;;1.70;1.60;;;19.70;99.90;;;;;;4972727;28;20041;-78
2023/07/15 06:06:56;;;;;;;4.25;1.50;;;20.40;99.90;;;;;;4954937;28;20507;-78
2023/07/15 06:09:22;;;;;;;3.08;1.30;;;20.70;99.90;;;;;;4955203;28;20436;-78
2023/07/15 06:11:48;;;;;;;1.88;1.58;;;21.20;99.90;;;;;;4955338;28;20037;-78
2023/07/15 06:14:13;;;;;;;3.47;2.00;;;21.50;99.90;;;;;;4955021;28;20023;-79
2023/07/15 06:16:39;;;;;;;6.03;1.70;;;21.90;99.90;;;;;;4972416;28;20049;-78
2023/07/15 06:19:04;;;;;;;1.67;1.48;;;22.00;99.90;;;;;;4972436;28;20037;-78
2023/07/15 06:21:30;;;;;;;2.65;1.55;;;21.90;99.90;;;;;;4972209;28;20055;-78
2023/07/15 06:23:56;;;;;;;1.85;1.70;;;21.70;99.90;;;;;;4955191;28;20577;-78
2023/07/15 06:26:22;;;;;;;2.28;1.85;;;21.50;99.90;;;;;;4953993;28;20038;-78
2023/07/15 06:28:47;;;;;;;2.15;2.00;;;21.70;99.90;;;;;;4972896;28;20023;-79
2023/07/15 06:31:13;;;;;;;2.70;1.67;;;22.10;99.90;;;;;;4972273;28;20031;-78
2023/07/15 06:33:41;;;;;;;5.40;2.28;;;22.40;99.90;;;;;;4954554;28;20027;-78
2023/07/15 06:36:07;;;;;;;2.22;2.03;;;22.80;99.90;;;;;;4954264;28;20125;-78
2023/07/15 06:38:32;;;;;;;1.80;1.65;;;23.00;99.90;;;;;;4972022;28;20151;-78
2023/07/15 06:40:58;;;;;;;1.95;1.77;;;23.20;99.90;;;;;;4954707;28;20030;-78
2023/07/15 06:43:24;;;;;;;2.80;1.92;;;23.30;99.90;;;;;;4954712;28;20027;-78
2023/07/15 06:45:50;;;;;;;1.70;1.60;;;23.60;99.90;;;;;;4972080;28;20042;-78
2023/07/15 06:48:17;;;;;;;3.85;2.10;;;24.50;99.90;;;;;;4971998;28;20038;-78
2023/07/15 06:50:44;;;;;;;2.00;1.83;;;25.90;99.90;;;;;;4971283;28;20055;-78
2023/07/15 06:53:10;;;;;;;2.22;2.03;;;27.40;99.10;;;;;;4971516;28;20082;-78
2023/07/15 06:55:36;;;;;;;3.88;1.85;;;27.70;95.60;;;;;;4954333;28;20483;-79
2023/07/15 06:58:02;;;;;;;2.75;1.83;;;27.30;96.30;;;;;;4971774;28;20031;-79
2023/07/15 07:00:29;;;;;;;5.15;1.70;;;28.10;94.40;;;;;;4954203;28;20031;-79
2023/07/15 07:02:54;;;;;;;2.30;2.03;;;29.70;91.40;;;;;;4954182;28;20019;-78
2023/07/15 07:05:20;;;;;;;1.63;1.52;;;31.10;85.50;;;;;;4971252;28;20110;-79
2023/07/15 07:07:47;;;;;;;2.80;1.52;;;32.20;79.30;;;;;;4971984;28;20027;-79
2023/07/15 07:10:12;;;;;;;3.45;1.55;;;33.20;74.10;;;;;;4971429;28;20015;-78
2023/07/15 07:12:38;;;;;;;2.05;1.55;;;34.00;69.50;;;;;;4971466;28;20090;-78
2023/07/15 07:15:05;;;;;;;1.65;1.55;;;35.10;66.00;;;;;;4971554;28;20069;-79
2023/07/15 07:17:30;;;;;;;2.05;1.40;;;34.60;64.50;;;;;;4953905;28;20031;-78
2023/07/15 07:19:56;;;;;;;2.13;1.27;;;34.60;62.40;;;;;;4953782;28;20033;-78
2023/07/15 07:22:22;;;;;;;2.85;1.83;;;35.20;61.40;;;;;;4971205;28;20064;-78
2023/07/15 07:24:49;;;;;;;3.75;1.27;;;36.00;60.20;;;;;;4953841;28;20093;-78
2023/07/15 07:27:14;;;;;;;1.67;1.58;;;36.20;59.20;;;;;;4971399;28;20026;-78
2023/07/15 07:29:40;;;;;;;4.80;1.27;;;36.70;58.40;;;;;;4971002;28;20037;-78
2023/07/15 07:32:06;;;;;;;2.75;1.25;;;36.60;56.90;;;;;;4953786;28;20077;-79
2023/07/15 07:34:33;;;;;;;3.05;1.77;;;34.90;57.70;;;;;;4971222;28;20035;-79
2023/07/15 07:36:59;;;;;;;2.25;1.08;;;33.60;60.10;;;;;;4970538;28;20396;-79
2023/07/15 07:39:24;;;;;;;1.90;1.48;;;32.50;61.40;;;;;;4971212;28;20035;-78
2023/07/15 07:41:50;;;;;;;6.93;1.83;;;32.30;64.20;;;;;;4953583;28;20246;-79
2023/07/15 07:44:16;;;;;;;1.50;1.40;;;33.50;62.80;;;;;;4971252;28;20530;-79
2023/07/15 07:46:42;;;;;;;1.92;1.40;;;34.50;60.70;;;;;;4970653;28;20102;-79
2023/07/15 07:49:07;;;;;;;1.55;1.48;;;34.60;60.70;;;;;;4970660;28;20134;-78
2023/07/15 07:51:33;;;;;;;2.38;1.63;;;35.50;59.50;;;;;;4953159;28;20037;-79
2023/07/15 07:53:58;;;;;;;1.70;1.40;;;35.80;57.50;;;;;;4970810;28;20150;-78
2023/07/15 07:56:24;;;;;;;4.72;1.70;;;34.90;61.60;;;;;;4953431;28;20086;-79
2023/07/15 07:58:54;;;;;;;1.85;1.73;;;33.30;63.10;;;;;;4953097;28;20097;-79
2023/07/15 08:01:21;;;;;;;2.45;1.60;;;32.40;64.30;;;;;;4970590;28;20035;-78
2023/07/15 08:03:47;;;;;;;1.75;1.65;;;31.80;65.10;;;;;;4970368;28;20015;-78
2023/07/15 08:06:13;;;;;;;2.75;1.90;;;31.80;65.30;;;;;;4969920;28;20097;-78
2023/07/15 08:08:39;;;;;;;1.65;1.35;;;32.10;65.00;;;;;;4970519;28;20471;-78
2023/07/15 08:11:04;;;;;;;1.55;1.45;;;32.20;65.60;;;;;;4970346;28;20027;-78
2023/07/15 08:13:30;;;;;;;8.05;2.00;;;32.00;67.00;;;;;;4952908;28;20029;-78
2023/07/15 08:15:57;;;;;;;3.90;2.10;;;31.50;66.40;;;;;;4953301;28;20491;-79
2023/07/15 08:18:22;;;;;;;1.63;1.52;;;31.00;67.50;;;;;;4953119;28;20027;-78
2023/07/15 08:20:48;;;;;;;1.75;1.65;;;30.30;72.80;;;;;;4969587;28;20503;-78
2023/07/15 08:23:14;;;;;;;2.47;1.50;;;29.50;75.90;;;;;;4953067;28;20110;-78
2023/07/15 08:25:39;;;;;;;4.28;2.05;;;28.90;76.00;;;;;;4970198;28;20039;-78
2023/07/15 08:28:05;;;;;;;5.07;1.90;;;28.20;73.80;;;;;;4953023;28;20057;-79
2023/07/15 08:30:31;;;;;;;1.70;1.60;;;28.20;74.60;;;;;;4970620;28;20030;-78
2023/07/15 08:32:56;;;;;;;3.13;2.03;;;28.10;78.20;;;;;;4952951;28;20460;-78
2023/07/15 08:35:22;;;;;;;2.08;1.95;;;28.20;79.20;;;;;;4952456;28;20448;-79
2023/07/15 08:37:48;;;;;;;8.02;2.15;;;28.20;78.70;;;;;;4952702;28;20510;-78
2023/07/15 08:40:16;;;;;;;9.73;3.13;;;28.70;78.10;;;;;;4969708;28;20027;-78
2023/07/15 08:42:42;;;;;;;2.40;2.20;;;29.40;73.60;;;;;;4970195;28;20031;-79
2023/07/15 08:45:08;;;;;;;1.80;1.70;;;29.50;74.40;;;;;;4969965;28;20776;-78
2023/07/15 08:47:34;;;;;;;4.63;1.80;;;29.80;74.30;;;;;;4969793;28;20034;-78
2023/07/15 08:50:03;;;;;;;2.92;2.15;;;30.70;73.00;;;;;;4973741;28;20014;-79
2023/07/15 08:52:30;;;;;;;2.63;2.13;;;31.00;71.50;;;;;;4974217;28;20109;-78
2023/07/15 08:54:56;;;;;;;2.70;1.60;;;29.90;72.70;;;;;;4956305;28;20118;-78
2023/07/15 08:57:23;;;;;;;9.00;1.60;;;28.50;73.50;;;;;;4956421;28;20039;-78
2023/07/15 08:59:56;;;;;;;3.63;1.73;;;27.90;74.10;;;;;;4973969;28;20050;-78
2023/07/15 09:02:22;;;;;;;1.77;1.67;;;28.20;74.20;;;;;;4956582;28;20019;-78
2023/07/15 09:04:48;;;;;;;2.22;1.67;;;28.50;72.00;;;;;;4973557;28;20018;-78
2023/07/15 09:07:14;;;;;;;2.38;1.98;;;29.30;70.60;;;;;;4956338;28;20033;-79
2023/07/15 09:09:40;;;;;;;2.45;1.48;;;29.30;68.80;;;;;;4956430;28;20495;-78
2023/07/15 09:12:08;;;;;;;2.20;1.80;;;29.70;67.30;;;;;;4973734;28;20050;-78
2023/07/15 09:14:44;;;;;;;2.50;1.58;;;30.00;66.40;;;;;;4973459;28;20022;-78
2023/07/15 09:17:16;;;;;;;1.88;1.33;;;29.50;67.20;;;;;;4973436;28;20466;-79
2023/07/15 09:19:43;;;;;;;5.00;1.80;;;29.00;69.00;;;;;;4955724;28;20035;-78
2023/07/15 09:22:09;;;;;;;2.85;2.38;;;28.20;70.50;;;;;;4973722;28;20504;-78
2023/07/15 09:24:38;;;;;;;2.15;1.67;;;27.40;71.50;;;;;;4956116;28;20117;-79
2023/07/15 09:27:05;;;;;;;3.42;1.42;;;27.60;73.30;;;;;;4955833;28;20041;-77
2023/07/15 09:29:30;;;;;;;1.60;1.50;;;28.20;71.90;;;;;;4955692;28;20030;-79
2023/07/15 09:31:56;;;;;;;2.50;1.60;;;28.80;69.80;;;;;;4973210;28;20030;-78
2023/07/15 09:34:24;;;;;;;2.47;2.03;;;29.00;70.80;;;;;;4955786;28;20031;-78
2023/07/15 09:36:50;;;;;;;2.40;1.63;;;29.60;69.80;;;;;;4955462;28;20049;-78
2023/07/15 09:39:19;;;;;;;2.42;1.60;;;29.80;68.00;;;;;;4955912;28;20018;-78
2023/07/15 09:42:07;;;;;;;6.07;3.08;;;29.50;68.90;;;;;;4973383;28;20065;-78
2023/07/15 09:44:45;;;;;;;3.72;1.80;;;29.30;68.80;;;;;;4955779;28;20118;-78
2023/07/15 09:47:11;;;;;;;1.95;1.73;;;29.10;70.30;;;;;;4955477;28;20042;-78
2023/07/15 09:49:37;;;;;;;3.90;1.88;;;29.60;69.30;;;;;;4955273;28;20031;-78
2023/07/15 09:52:05;;;;;;;4.10;2.22;;;29.80;69.30;;;;;;4955282;28;20194;-78
2023/07/15 09:54:32;;;;;;;4.68;2.03;;;29.60;71.20;;;;;;4955349;28;20093;-78
2023/07/15 09:57:13;;;;;;;3.50;2.20;;;29.30;69.20;;;;;;4955605;28;20054;-78
2023/07/15 09:59:46;;;;;;;1.70;1.60;;;28.50;71.60;;;;;;4955509;28;20562;-79
2023/07/15 10:02:27;;;;;;;3.83;2.50;;;29.00;69.00;;;;;;4955782;28;20555;-78
2023/07/15 10:04:56;;;;;;;6.05;2.17;;;29.30;68.00;;;;;;4955151;28;20023;-78
2023/07/15 10:07:21;;;;;;;8.65;3.22;;;29.50;69.30;;;;;;4972499;28;20526;-78
2023/07/15 10:09:47;;;;;;;2.08;1.90;;;29.30;70.80;;;;;;4972570;28;20042;-78
2023/07/15 10:12:13;;;;;;;2.22;2.03;;;29.20;69.60;;;;;;4955336;28;20034;-78
2023/07/15 10:14:41;;;;;;;2.75;2.20;;;28.90;69.40;;;;;;4955326;28;20027;-78
2023/07/15 10:17:11;;;;;;;2.03;1.48;;;28.70;70.90;;;;;;4955136;28;20069;-78
2023/07/15 10:19:46;;;;;;;2.33;2.08;;;29.00;69.80;;;;;;4954750;28;20086;-78
2023/07/15 10:22:13;;;;;;;4.60;1.77;;;29.30;66.70;;;;;;4955262;28;20043;-78
2023/07/15 10:24:54;;;;;;;1.58;1.48;;;29.60;70.60;;;;;;4972369;28;20294;-78
2023/07/15 10:27:20;;;;;;;6.30;2.15;;;30.00;66.00;;;;;;4954553;28;20039;-78
2023/07/15 10:29:45;;;;;;;4.43;2.03;;;30.10;65.50;;;;;;4954669;28;20122;-78
2023/07/15 10:32:15;;;;;;;2.08;1.63;;;30.40;65.30;;;;;;4954802;28;20054;-78
2023/07/15 10:34:48;;;;;;;3.83;1.90;;;30.90;64.80;;;;;;4954826;28;20045;-80
2023/07/15 10:37:15;;;;;;;7.15;1.90;;;31.30;63.60;;;;;;4972318;28;20089;-79
2023/07/15 10:39:42;;;;;;;1.98;1.80;;;31.70;61.90;;;;;;4972093;28;20022;-79
2023/07/15 10:42:13;;;;;;;1.75;1.65;;;32.10;63.20;;;;;;4954537;28;20027;-78
2023/07/15 10:44:51;;;;;;;2.40;1.55;;;32.30;61.10;;;;;;4954264;28;20117;-79
2023/07/15 10:47:17;;;;;;;2.53;1.60;;;32.90;61.90;;;;;;4971567;28;20047;-78
2023/07/15 10:49:46;;;;;;;3.50;1.48;;;33.10;63.00;;;;;;4971652;28;20041;-80
2023/07/15 10:52:18;;;;;;;1.52;1.42;;;33.60;61.10;;;;;;4971854;28;20019;-79
2023/07/15 10:54:44;;;;;;;3.60;1.70;;;33.90;59.30;;;;;;4954540;28;20392;-78
2023/07/15 10:57:12;;;;;;;7.57;1.60;;;33.80;59.30;;;;;;4954452;28;20031;-79
2023/07/15 10:59:39;;;;;;;1.80;1.40;;;34.10;59.70;;;;;;4954087;28;20462;-79
2023/07/15 11:02:06;;;;;;;2.70;1.60;;;34.10;59.90;;;;;;4971687;28;20041;-79
2023/07/15 11:04:33;;;;;;;3.40;2.10;;;34.00;58.20;;;;;;4953645;28;20434;-79
2023/07/15 11:07:08;;;;;;;8.23;2.72;;;34.20;58.10;;;;;;4954105;28;20482;-78
2023/07/15 11:09:41;;;;;;;3.13;1.50;;;34.70;58.70;;;;;;4953861;28;20046;-78
2023/07/15 11:12:08;;;;;;;4.43;1.65;;;35.20;58.30;;;;;;4970879;28;20070;-78
2023/07/15 11:14:37;;;;;;;1.60;1.38;;;35.30;57.80;;;;;;4954288;28;20117;-79
2023/07/15 11:17:03;;;;;;;;;;;35.50;55.20;;;;;;4954689;28;20066;-79
2023/07/15 11:19:29;;;;;;;1.33;1.23;;;35.60;56.00;;;;;;4971115;28;20000;-79
2023/07/15 11:21:56;;;;;;;5.85;1.17;;;36.10;55.40;;;;;;4953475;28;20498;-78
2023/07/15 11:24:23;;;;;;;2.05;1.60;;;36.10;56.70;;;;;;4953846;28;20122;-79
2023/07/15 11:26:49;;;;;;;1.45;1.35;;;36.20;55.50;;;;;;4971198;28;20109;-79
2023/07/15 11:29:20;;;;;;;1.90;1.50;;;36.20;55.00;;;;;;4953676;28;20516;-79
2023/07/15 11:31:50;;;;;;;2.80;1.48;;;36.20;54.00;;;;;;4953963;28;20037;-79
2023/07/15 11:34:23;;;;;;;1.95;1.50;;;36.20;53.80;;;;;;4971061;28;20106;-79
2023/07/15 11:36:51;;;;;;;1.08;1.00;;;36.20;55.10;;;;;;4953621;28;20512;-79
2023/07/15 11:39:18;;;;;;;3.15;1.25;;;35.00;54.50;;;;;;4953430;28;20534;-79
2023/07/15 11:41:44;;;;;;;2.30;1.80;;;34.60;55.20;;;;;;4953658;28;20031;-78
2023/07/15 11:44:14;;;;;;;2.20;1.30;;;34.90;54.90;;;;;;4953618;28;20031;-79
2023/07/15 11:46:43;;;;;;;2.05;1.70;;;35.80;55.40;;;;;;4970845;28;20038;-79
2023/07/15 11:49:09;;;;;;;;;;;35.60;53.60;;;;;;4971295;28;20535;-79
2023/07/15 11:51:36;;;;;;;1.48;1.38;;;34.40;54.70;;;;;;4970557;28;19910;-79
2023/07/15 11:54:06;;;;;;;4.32;1.60;;;35.20;55.00;;;;;;4953633;28;20177;-79
2023/07/15 11:56:41;;;;;;;3.58;1.40;;;35.90;55.10;;;;;;4953444;28;20026;-79
2023/07/15 11:59:08;;;;;;;2.42;1.40;;;35.40;54.20;;;;;;4970568;28;20436;-79
2023/07/15 12:01:37;;;;;;;1.92;1.50;;;34.90;57.30;;;;;;4953049;28;20019;-78
2023/07/15 12:04:14;;;;;;;4.72;1.52;;;34.90;57.00;;;;;;4970829;28;20030;-79
2023/07/15 12:07:06;;;;;;;1.73;1.63;;;33.90;55.70;;;;;;4970230;28;20133;-78
2023/07/15 12:09:33;;;;;;;2.78;1.40;;;34.50;57.40;;;;;;4966885;28;20035;-78
2023/07/15 12:11:59;;;;;;;1.52;1.40;;;33.90;55.20;;;;;;4953209;28;20089;-79
2023/07/15 12:14:25;;;;;;;4.20;1.77;;;33.90;57.20;;;;;;4953096;28;20471;-79
2023/07/15 12:16:53;;;;;;;1.98;1.58;;;34.60;56.40;;;;;;4952974;28;20089;-79
2023/07/15 12:19:19;;;;;;;3.58;1.70;;;35.00;55.50;;;;;;4952829;28;20058;-78
2023/07/15 12:21:45;;;;;;;1.50;1.40;;;34.70;57.10;;;;;;4970253;28;20051;-78
2023/07/15 12:24:10;;;;;;;2.08;1.70;;;34.30;58.30;;;;;;4969657;28;20027;-79
2023/07/15 12:26:36;;;;;;;4.97;1.58;;;34.40;57.60;;;;;;4953092;28;20106;-80
2023/07/15 12:29:02;;;;;;;4.00;1.67;;;35.00;55.40;;;;;;4953111;28;20383;-78
2023/07/15 12:31:29;;;;;;;1.80;1.70;;;35.40;55.20;;;;;;4970758;28;20077;-78
2023/07/15 12:33:54;;;;;;;3.55;1.50;;;36.10;52.80;;;;;;4970322;28;20126;-79
2023/07/15 12:36:20;;;;;;;4.10;1.55;;;36.50;52.50;;;;;;4969890;28;20034;-78
2023/07/15 12:38:46;;;;;;;1.55;1.45;;;36.20;51.90;;;;;;4952916;28;20047;-78
2023/07/15 12:41:12;;;;;;;1.83;1.70;;;35.60;54.80;;;;;;4952479;28;20065;-79
2023/07/15 12:43:39;;;;;;;2.63;1.38;;;35.60;57.10;;;;;;4952879;28;20027;-79
2023/07/15 12:46:05;;;;;;;3.65;1.90;;;35.40;56.30;;;;;;4952844;28;20031;-78